CheckWX is a tool to help pilots better visualize weather data.  It is not intended as a substitute for an official pre-flight weather briefing.

15:58:05 UTC

LEAM METAR
Almería International Airport
Almería, Spain
Current

28 mins ago

LEAM 131530Z 23013KT 200V260 CAVOK 29/22 Q1016
Observed
Jul-13 @ 15:30 UTC
Wind
  • 230° at 13 KTS
Visibility
10,000+ meters
Flight Rules
VFR
Cloud Levels
  • Clear skies
Temperature
29°C / 84°F
Dewpoint
22°C / 72°F
Humidity
66%
Altimeter
30" Hg
Pressure
1015.92 hPa
Previous

58 mins ago

LEAM 131500Z 23014KT CAVOK 28/22 Q1016
Observed
Jul-13 @ 15:00 UTC
Wind
  • 230° at 14 KTS
Visibility
10,000+ meters
Flight Rules
VFR
Cloud Levels
  • Clear skies
Temperature
28°C / 82°F
Dewpoint
22°C / 72°F
Humidity
70%
Altimeter
30" Hg
Pressure
1015.92 hPa
Previous

1 hour ago

LEAM 131430Z 24015KT CAVOK 29/21 Q1016
Observed
Jul-13 @ 14:30 UTC
Wind
  • 240° at 15 KTS
Visibility
10,000+ meters
Flight Rules
VFR
Cloud Levels
  • Clear skies
Temperature
29°C / 84°F
Dewpoint
21°C / 70°F
Humidity
62%
Altimeter
30" Hg
Pressure
1015.92 hPa